Map

Track Data

SID SEASON NUMBER BASIN SUBBASIN NAME ISO_TIME NATURE LAT LON WMO_WIND WMO_PRES WMO_AGENCY TRACK_TYPE DIST2LAND LANDFALL IFLAG USA_AGENCY USA_ATCF_ID USA_LAT USA_LON USA_RECORD USA_STATUS USA_WIND USA_PRES USA_SSHS USA_R34_NE USA_R34_SE USA_R34_SW USA_R34_NW USA_R50_NE USA_R50_SE USA_R50_SW USA_R50_NW USA_R64_NE USA_R64_SE USA_R64_SW USA_R64_NW USA_POCI USA_ROCI USA_RMW USA_EYE TOKYO_LAT TOKYO_LON TOKYO_GRADE TOKYO_WIND TOKYO_PRES TOKYO_R50_DIR TOKYO_R50_LONG TOKYO_R50_SHORT TOKYO_R30_DIR TOKYO_R30_LONG TOKYO_R30_SHORT TOKYO_LAND CMA_LAT CMA_LON CMA_CAT CMA_WIND CMA_PRES HKO_LAT HKO_LON HKO_CAT HKO_WIND HKO_PRES NEWDELHI_LAT NEWDELHI_LON NEWDELHI_GRADE NEWDELHI_WIND NEWDELHI_PRES NEWDELHI_CI NEWDELHI_DP NEWDELHI_POCI REUNION_LAT REUNION_LON REUNION_TYPE REUNION_WIND REUNION_PRES REUNION_TNUM REUNION_CI REUNION_RMW REUNION_R34_NE REUNION_R34_SE REUNION_R34_SW REUNION_R34_NW REUNION_R50_NE REUNION_R50_SE REUNION_R50_SW REUNION_R50_NW REUNION_R64_NE REUNION_R64_SE REUNION_R64_SW REUNION_R64_NW BOM_LAT BOM_LON BOM_TYPE BOM_WIND BOM_PRES BOM_TNUM BOM_CI BOM_RMW BOM_R34_NE BOM_R34_SE BOM_R34_SW BOM_R34_NW BOM_R50_NE BOM_R50_SE BOM_R50_SW BOM_R50_NW BOM_R64_NE BOM_R64_SE BOM_R64_SW BOM_R64_NW BOM_ROCI BOM_POCI BOM_EYE BOM_POS_METHOD BOM_PRES_METHOD NADI_LAT NADI_LON NADI_CAT NADI_WIND NADI_PRES WELLINGTON_LAT WELLINGTON_LON WELLINGTON_WIND WELLINGTON_PRES DS824_LAT DS824_LON DS824_STAGE DS824_WIND DS824_PRES TD9636_LAT TD9636_LON TD9636_STAGE TD9636_WIND TD9636_PRES TD9635_LAT TD9635_LON TD9635_WIND TD9635_PRES TD9635_ROCI NEUMANN_LAT NEUMANN_LON NEUMANN_CLASS NEUMANN_WIND NEUMANN_PRES MLC_LAT MLC_LON MLC_CLASS MLC_WIND MLC_PRES USA_GUST BOM_GUST BOM_GUST_PER REUNION_GUST REUNION_GUST_PER USA_SEAHGT USA_SEARAD_NE USA_SEARAD_SE USA_SEARAD_SW USA_SEARAD_NW STORM_SPEED STORM_DIR
1911060S14431 1911 19 SI MM NOT_NAMED 1911-02-28 18:00:00 NR -13.7000 70.8000 main 1566 1556 __________O___ -1 -13.7000 70.8000 7 2 264
1911060S14431 1911 19 SI MM NOT_NAMED 1911-02-28 21:00:00 NR -13.7124 70.6734 main 1556 1537 __________P___ -1 -13.7124 70.6734 7 3 264
1911060S14431 1911 19 SI MM NOT_NAMED 1911-03-01 00:00:00 NR -13.7298 70.5274 main 1537 1523 __________P___ -1 -13.7298 70.5274 7 3 262
1911060S14431 1911 19 SI MM NOT_NAMED 1911-03-01 03:00:00 NR -13.7574 70.3428 main 1513 1494 __________P___ -1 -13.7574 70.3428 7 4 260
1911060S14431 1911 19 SI MM NOT_NAMED 1911-03-01 06:00:00 NR -13.8000 70.1000 main 1494 1461 __________O___ -1 -13.8000 70.1000 7 6 259
1911060S14431 1911 19 SI MM NOT_NAMED 1911-03-01 09:00:00 NR -13.8607 69.7866 main 1461 1423 __________P___ -1 -13.8607 69.7866 7 7 258
1911060S14431 1911 19 SI MM NOT_NAMED 1911-03-01 12:00:00 NR -13.9351 69.4175 main 1423 1381 __________P___ -1 -13.9351 69.4175 7 8 258
1911060S14431 1911 19 SI MM NOT_NAMED 1911-03-01 15:00:00 NR -14.0169 69.0147 main 1381 1338 __________P___ -1 -14.0169 69.0147 7 8 258
1911060S14431 1911 19 SI MM NOT_NAMED 1911-03-01 18:00:00 NR -14.1000 68.6000 main 1338 1295 __________O___ -1 -14.1000 68.6000 7 8 259
1911060S14431 1911 19 SI MM NOT_NAMED 1911-03-01 21:00:00 NR -14.1667 68.2111 main 1295 1259 __________P___ -1 -14.1667 68.2111 7 8 260
1911060S14431 1911 19 SI MM NOT_NAMED 1911-03-02 00:00:00 NR -14.2347 67.8147 main 1259 1217 __________P___ -1 -14.2347 67.8147 7 8 259
1911060S14431 1911 19 SI MM NOT_NAMED 1911-03-02 03:00:00 NR -14.3104 67.4110 main 1217 1175 __________P___ -1 -14.3104 67.4110 7 8 258
1911060S14431 1911 19 SI MM NOT_NAMED 1911-03-02 06:00:00 NR -14.4000 67.0000 main 1175 1133 __________O___ -1 -14.4000 67.0000 7 8 257
1911060S14431 1911 19 SI MM NOT_NAMED 1911-03-02 09:00:00 NR -14.4980 66.6022 main 1133 1091 __________P___ -1 -14.4980 66.6022 7 8 255
1911060S14431 1911 19 SI MM NOT_NAMED 1911-03-02 12:00:00 NR -14.6118 66.1945 main 1091 1050 __________P___ -1 -14.6118 66.1945 7 8 253
1911060S14431 1911 19 SI MM NOT_NAMED 1911-03-02 15:00:00 NR -14.7448 65.7645 main 1050 993 __________P___ -1 -14.7448 65.7645 7 9 252
1911060S14431 1911 19 SI MM NOT_NAMED 1911-03-02 18:00:00 NR -14.9000 65.3000 main 993 937 __________O___ -1 -14.9000 65.3000 7 10 251
1911060S14431 1911 19 SI MM NOT_NAMED 1911-03-02 21:00:00 NR -15.0788 64.7618 main 937 873 __________P___ -1 -15.0788 64.7618 7 11 251
1911060S14431 1911 19 SI MM NOT_NAMED 1911-03-03 00:00:00 NR -15.2781 64.1928 main 873 817 __________P___ -1 -15.2781 64.1928 7 12 249
1911060S14431 1911 19 SI MM NOT_NAMED 1911-03-03 03:00:00 NR -15.4882 63.6274 main 809 754 __________P___ -1 -15.4882 63.6274 7 11 248
1911060S14431 1911 19 SI MM NOT_NAMED 1911-03-03 06:00:00 NR -15.7000 63.1000 main 754 707 __________O___ -1 -15.7000 63.1000 7 10 247
1911060S14431 1911 19 SI MM NOT_NAMED 1911-03-03 09:00:00 NR -15.8872 62.6523 main 707 660 __________P___ -1 -15.8872 62.6523 7 9 245
1911060S14431 1911 19 SI MM NOT_NAMED 1911-03-03 12:00:00 NR -16.0767 62.2468 main 653 614 __________P___ -1 -16.0767 62.2468 7 9 243
1911060S14431 1911 19 SI MM NOT_NAMED 1911-03-03 15:00:00 NR -16.2779 61.8679 main 614 568 __________P___ -1 -16.2779 61.8679 7 8 239
1911060S14431 1911 19 SI MM NOT_NAMED 1911-03-03 18:00:00 NR -16.5000 61.5000 main 568 522 __________O___ -1 -16.5000 61.5000 7 9 240
1911060S14431 1911 19 SI MM NOT_NAMED 1911-03-03 21:00:00 NR -16.7252 61.0732 main 522 469 __________P___ -1 -16.7252 61.0732 7 9 239
1911060S14431 1911 19 SI MM NOT_NAMED 1911-03-04 00:00:00 NR -16.9753 60.6602 main 469 424 __________P___ -1 -16.9753 60.6602 7 9 234
1911060S14431 1911 19 SI MM NOT_NAMED 1911-03-04 03:00:00 NR -17.2628 60.2921 main 416 369 __________P___ -1 -17.2628 60.2921 7 9 225
1911060S14431 1911 19 SI MM NOT_NAMED 1911-03-04 06:00:00 NR -17.6000 60.0000 main 369 322 __________O___ -1 -17.6000 60.0000 7 9 214
1911060S14431 1911 19 SI MM NOT_NAMED 1911-03-04 09:00:00 NR -17.9790 59.7885 main 322 283 __________P___ -1 -17.9790 59.7885 7 9 202
1911060S14431 1911 19 SI MM NOT_NAMED 1911-03-04 12:00:00 NR -18.4096 59.6577 main 283 240 __________P___ -1 -18.4096 59.6577 7 9 191
1911060S14431 1911 19 SI MM NOT_NAMED 1911-03-04 15:00:00 NR -18.8854 59.5981 main 240 213 __________P___ -1 -18.8854 59.5981 7 10 184
1911060S14431 1911 19 SI MM NOT_NAMED 1911-03-04 18:00:00 NR -19.4000 59.6000 main 213 193 __________O___ -1 -19.4000 59.6000 7 11 0
1911060S14431 1911 19 SI MM NOT_NAMED 1911-03-04 21:00:00 NR -19.9552 59.6180 main 190 188 __________P___ -1 -19.9552 59.6180 7 12 175
1911060S14431 1911 19 SI MM NOT_NAMED 1911-03-05 00:00:00 NR -20.5423 59.6949 main 199 199 __________P___ -1 -20.5423 59.6949 7 12 171
1911060S14431 1911 19 SI MM NOT_NAMED 1911-03-05 03:00:00 NR -21.1333 59.8245 main 226 226 __________P___ -1 -21.1333 59.8245 7 12 166
1911060S14431 1911 19 SI MM NOT_NAMED 1911-03-05 06:00:00 NR -21.7000 60.0000 main 273 273 __________O___ -1 -21.7000 60.0000 7 11 162
1911060S14431 1911 19 SI MM NOT_NAMED 1911-03-05 09:00:00 NR -22.2078 60.1988 main 321 321 __________P___ -1 -22.2078 60.1988 7 11 158
1911060S14431 1911 19 SI MM NOT_NAMED 1911-03-05 12:00:00 NR -22.6875 60.4402 main 371 371 __________P___ -1 -22.6875 60.4402 7 11 153
1911060S14431 1911 19 SI MM NOT_NAMED 1911-03-05 15:00:00 NR -23.1484 60.7115 main 424 424 __________P___ -1 -23.1484 60.7115 7 11 151
1911060S14431 1911 19 SI MM NOT_NAMED 1911-03-05 18:00:00 NR -23.6000 61.0000 main 485 485 __________O___ -1 -23.6000 61.0000 7 11 149
1911060S14431 1911 19 SI MM NOT_NAMED 1911-03-05 21:00:00 NR -24.0502 61.2948 main 546 546 __________P___ -1 -24.0502 61.2948 7 11 149
1911060S14431 1911 19 SI MM NOT_NAMED 1911-03-06 00:00:00 NR -24.5004 61.5934 main 600 600 __________P___ -1 -24.5004 61.5934 7 11 149
1911060S14431 1911 19 SI MM NOT_NAMED 1911-03-06 03:00:00 NR -24.9504 61.8953 main 661 661 __________P___ -1 -24.9504 61.8953 7 11 149
1911060S14431 1911 19 SI MM NOT_NAMED 1911-03-06 06:00:00 NR -25.4000 62.2000 main 715 __________O___ -1 -25.4000 62.2000 7 11 149

About IBTrACS Database

This database is a web-friendly format of International Best Track Archive for Climate Stewardship (IBTrACS), a global best track data archive curated by NOAA dating back to 1842.

Updated: 2021-10-25